SBKP/CPQ METAR and TAF weather

Enter ICAO airport designator
Station Type Date Time Source
SBKP METAR 2024/06/16 08:00 UTC NOAA

SBKP 160800Z 12007KT CAVOK 16/14 Q1020


Station Type Date Time Source
SBKP Decoded METAR 2024/06/16 08:00 UTC NOAA

Campinas Aeroporto , Brazil (SBKP) 23-00S 047-08W 661M
Jun 16, 2024 - 04:00 AM EDT / 2024.06.16 0800 UTC
Wind: from the ESE (120 degrees) at 8 MPH (7 KT):0
Visibility: greater than 7 mile(s):0
Temperature: 60 F (16 C)
Dew Point: 57 F (14 C)
Relative Humidity: 87%
Pressure (altimeter): 30.12 in. Hg (1020 hPa)
ob: SBKP 160800Z 12007KT CAVOK 16/14 Q1020
cycle: 8

Station Type Date Time Source
SBKP TAF 2024/06/16 06:27 UTC NOAA